createdAt,value
2022-08-03T00:01:49.448Z,100.00
2022-08-03T00:03:53.866Z,100.00
2022-08-03T00:06:03.929Z,100.00
2022-08-03T00:08:08.086Z,100.00
2022-08-03T00:10:11.883Z,100.00
2022-08-03T00:12:15.129Z,100.00
2022-08-03T00:14:18.321Z,100.00
2022-08-03T00:16:21.643Z,100.00
2022-08-03T00:18:26.436Z,100.00
2022-08-03T00:20:31.294Z,100.00
2022-08-03T00:22:36.126Z,100.00
2022-08-03T00:24:39.069Z,100.00
2022-08-03T00:26:42.200Z,100.00
2022-08-03T00:28:45.465Z,100.00
2022-08-03T00:30:48.452Z,100.00
2022-08-03T00:32:58.648Z,100.00
2022-08-03T00:35:08.346Z,100.00
2022-08-03T00:37:14.223Z,100.00
2022-08-03T00:39:17.245Z,100.00
2022-08-03T00:41:20.191Z,100.00
2022-08-03T00:43:26.746Z,100.00
2022-08-03T00:45:31.140Z,100.00
2022-08-03T00:47:34.211Z,100.00
2022-08-03T00:49:37.294Z,100.00
2022-08-03T00:51:40.235Z,100.00
2022-08-03T00:53:45.786Z,100.00
2022-08-03T00:55:48.982Z,100.00
2022-08-03T00:57:52.168Z,100.00
2022-08-03T00:59:55.642Z,100.00
2022-08-03T01:01:59.677Z,100.00
2022-08-03T01:04:02.821Z,100.00
2022-08-03T01:06:12.913Z,100.00
2022-08-03T01:08:22.360Z,100.00
2022-08-03T01:10:33.559Z,100.00
2022-08-03T01:12:38.983Z,100.00
2022-08-03T01:14:47.955Z,100.00
2022-08-03T01:16:57.274Z,100.00
2022-08-03T01:19:04.561Z,100.00
2022-08-03T01:21:19.305Z,100.00
2022-08-03T01:23:39.019Z,100.00
2022-08-03T01:25:56.997Z,100.00
2022-08-03T01:28:22.919Z,100.00
2022-08-03T01:30:31.538Z,100.00
2022-08-03T01:33:01.131Z,100.00
2022-08-03T01:35:06.622Z,100.00
2022-08-03T01:37:10.555Z,100.00
2022-08-03T01:39:13.798Z,100.00
2022-08-03T01:41:19.765Z,100.00
2022-08-03T01:44:26.538Z,100.00
2022-08-03T01:45:52.848Z,100.00
2022-08-03T01:47:56.489Z,100.00
2022-08-03T01:49:59.805Z,100.00
2022-08-03T01:52:14.563Z,100.00
2022-08-03T01:54:18.060Z,100.00
2022-08-03T01:56:21.521Z,100.00
2022-08-03T01:58:25.776Z,100.00
2022-08-03T02:00:28.960Z,100.00
2022-08-03T02:02:34.761Z,100.00
2022-08-03T02:04:39.878Z,100.00
2022-08-03T02:07:02.903Z,100.00
2022-08-03T02:09:07.491Z,100.00
2022-08-03T02:11:13.957Z,100.00
2022-08-03T02:13:18.378Z,100.00
2022-08-03T02:15:21.668Z,100.00
2022-08-03T02:17:39.779Z,100.00
2022-08-03T02:19:45.170Z,100.00
2022-08-03T02:21:56.391Z,100.00
2022-08-03T02:24:05.380Z,100.00
2022-08-03T02:26:16.644Z,100.00
2022-08-03T02:28:21.185Z,100.00
2022-08-03T02:30:27.258Z,100.00
2022-08-03T02:32:31.741Z,100.00
2022-08-03T02:34:36.496Z,100.00
2022-08-03T02:36:42.460Z,100.00
2022-08-03T02:38:45.879Z,100.00
2022-08-03T02:40:51.103Z,100.00
2022-08-03T02:42:57.558Z,100.00
2022-08-03T02:45:03.814Z,100.00
2022-08-03T02:47:09.462Z,100.00
2022-08-03T02:49:40.848Z,100.00
2022-08-03T02:51:37.784Z,100.00
2022-08-03T02:53:42.278Z,100.00
2022-08-03T02:55:46.212Z,100.00
2022-08-03T02:57:49.716Z,100.00
2022-08-03T02:59:53.389Z,100.00
2022-08-03T03:01:56.798Z,100.00
2022-08-03T03:04:01.548Z,100.00
2022-08-03T03:06:05.695Z,100.00
2022-08-03T03:08:17.674Z,100.00
2022-08-03T03:10:24.143Z,100.00
2022-08-03T03:12:27.485Z,100.00
2022-08-03T03:14:33.971Z,100.00
2022-08-03T03:16:37.629Z,100.00
2022-08-03T03:18:41.181Z,100.00
2022-08-03T03:20:44.637Z,100.00
2022-08-03T03:22:49.642Z,100.00
2022-08-03T03:24:53.492Z,100.00
2022-08-03T03:26:58.322Z,100.00
2022-08-03T03:29:03.836Z,100.00
2022-08-03T03:31:10.291Z,100.00
2022-08-03T03:33:13.943Z,100.00
2022-08-03T03:35:17.609Z,100.00
2022-08-03T03:37:20.617Z,100.00
2022-08-03T03:39:23.598Z,100.00
2022-08-03T03:41:26.746Z,100.00
2022-08-03T03:43:31.392Z,100.00
2022-08-03T03:45:35.893Z,100.00
2022-08-03T03:47:39.268Z,100.00
2022-08-03T03:49:42.901Z,100.00
2022-08-03T03:51:45.827Z,100.00
2022-08-03T03:53:58.824Z,100.00
2022-08-03T03:56:03.106Z,100.00
2022-08-03T03:58:06.773Z,100.00
2022-08-03T04:00:12.881Z,100.00
2022-08-03T04:02:16.657Z,100.00
2022-08-03T04:04:37.064Z,100.00
2022-08-03T04:06:57.349Z,100.00
2022-08-03T04:09:15.794Z,100.00
2022-08-03T04:11:29.218Z,100.00
2022-08-03T04:13:38.338Z,100.00
2022-08-03T04:15:43.260Z,100.00
2022-08-03T04:17:47.020Z,100.00
2022-08-03T04:19:52.955Z,100.00
2022-08-03T04:21:58.895Z,100.00
2022-08-03T04:24:04.312Z,100.00
2022-08-03T04:26:12.440Z,100.00
2022-08-03T04:31:52.092Z,100.00
2022-08-03T04:33:55.731Z,100.00
2022-08-03T04:36:02.653Z,100.00
2022-08-03T04:38:08.854Z,100.00
2022-08-03T04:40:15.512Z,100.00
2022-08-03T04:42:20.488Z,100.00
2022-08-03T04:44:28.305Z,100.00
2022-08-03T04:46:34.439Z,100.00
2022-08-03T04:48:42.307Z,100.00
2022-08-03T04:50:47.741Z,100.00
2022-08-03T04:52:51.042Z,100.00
2022-08-03T04:54:54.340Z,100.00
2022-08-03T04:56:57.375Z,100.00
2022-08-03T04:59:00.358Z,100.00
2022-08-03T05:01:05.508Z,100.00
2022-08-03T05:03:20.542Z,100.00
2022-08-03T05:05:37.863Z,100.00
2022-08-03T05:07:53.101Z,100.00
2022-08-03T05:09:57.691Z,100.00
2022-08-03T05:12:05.553Z,100.00
2022-08-03T05:14:08.559Z,100.00
2022-08-03T05:16:12.092Z,100.00
2022-08-03T05:18:15.110Z,100.00
2022-08-03T05:20:18.935Z,100.00
2022-08-03T05:22:23.846Z,100.00
2022-08-03T05:24:27.309Z,100.00
2022-08-03T05:26:30.441Z,100.00
2022-08-03T05:28:33.479Z,100.00
2022-08-03T05:30:37.519Z,100.00
2022-08-03T05:32:40.558Z,100.00
2022-08-03T05:34:44.029Z,100.00
2022-08-03T05:36:47.130Z,98.81
2022-08-03T05:38:51.577Z,96.34
2022-08-03T05:40:57.394Z,92.90
2022-08-03T05:43:18.000Z,92.21
2022-08-03T05:45:25.375Z,91.61
2022-08-03T05:47:30.990Z,89.14
2022-08-03T05:49:34.055Z,89.06
2022-08-03T05:51:37.180Z,86.13
2022-08-03T05:53:40.764Z,83.74
2022-08-03T05:55:45.209Z,80.75
2022-08-03T05:57:49.291Z,77.93
2022-08-03T05:59:54.606Z,77.06
2022-08-03T06:02:01.875Z,72.93
2022-08-03T06:04:05.226Z,73.39
2022-08-03T06:06:08.308Z,69.04
2022-08-03T06:08:11.329Z,70.26
2022-08-03T06:10:35.857Z,69.75
2022-08-03T06:12:42.482Z,67.58
2022-08-03T06:14:45.630Z,64.58
2022-08-03T06:16:50.513Z,65.20
2022-08-03T06:18:53.563Z,66.17
2022-08-03T06:20:56.790Z,65.90
2022-08-03T06:23:01.202Z,65.11
2022-08-03T06:25:07.347Z,65.32
2022-08-03T06:27:12.907Z,65.79
2022-08-03T06:29:17.565Z,66.02
2022-08-03T06:31:20.704Z,66.86
2022-08-03T06:33:25.444Z,65.35
2022-08-03T06:35:48.490Z,63.29
2022-08-03T06:37:52.367Z,62.16
2022-08-03T06:39:55.529Z,61.39
2022-08-03T06:41:58.777Z,62.49
2022-08-03T06:44:03.096Z,61.54
2022-08-03T06:46:08.885Z,60.59
2022-08-03T06:48:12.826Z,58.56
2022-08-03T06:50:16.843Z,60.19
2022-08-03T06:52:37.744Z,61.92
2022-08-03T06:54:41.236Z,62.13
2022-08-03T06:56:44.413Z,61.43
2022-08-03T06:58:48.804Z,61.37
2022-08-03T07:00:51.928Z,61.48
2022-08-03T07:02:58.434Z,60.25
2022-08-03T07:05:01.767Z,59.38
2022-08-03T07:07:05.107Z,57.42
2022-08-03T07:09:08.114Z,55.89
2022-08-03T07:11:11.107Z,54.77
2022-08-03T07:13:14.351Z,56.08
2022-08-03T07:15:20.548Z,54.99
2022-08-03T07:17:41.379Z,54.77
2022-08-03T07:19:45.819Z,52.23
2022-08-03T07:21:48.834Z,52.62
2022-08-03T07:23:51.824Z,53.32
2022-08-03T07:25:54.856Z,50.51
2022-08-03T07:27:57.971Z,50.62
2022-08-03T07:30:01.358Z,51.96
2022-08-03T07:32:04.654Z,49.81
2022-08-03T07:34:07.678Z,49.66
2022-08-03T07:36:12.178Z,49.79
2022-08-03T07:38:16.327Z,51.17
2022-08-03T07:40:19.329Z,50.14
2022-08-03T07:42:23.422Z,49.76
2022-08-03T07:44:26.417Z,48.82
2022-08-03T07:46:29.404Z,50.11
2022-08-03T07:48:32.433Z,46.15
2022-08-03T07:50:35.480Z,48.09
2022-08-03T07:52:53.514Z,47.15
2022-08-03T07:54:56.557Z,48.01
2022-08-03T07:56:59.629Z,44.77
2022-08-03T07:59:03.154Z,44.65
2022-08-03T08:01:08.828Z,42.51
2022-08-03T08:03:13.224Z,43.45
2022-08-03T08:05:16.283Z,42.57
2022-08-03T08:07:19.479Z,43.15
2022-08-03T08:09:25.623Z,43.61
2022-08-03T08:11:33.987Z,43.88
2022-08-03T08:13:39.919Z,44.50
2022-08-03T08:15:42.984Z,45.07
2022-08-03T08:17:48.549Z,45.48
2022-08-03T08:19:53.341Z,45.71
2022-08-03T08:22:02.361Z,45.48
2022-08-03T08:24:13.285Z,44.30
2022-08-03T08:26:22.598Z,44.91
2022-08-03T08:28:32.916Z,44.33
2022-08-03T08:30:36.927Z,43.27
2022-08-03T08:32:41.603Z,44.72
2022-08-03T08:34:45.233Z,43.34
2022-08-03T08:36:50.773Z,44.38
2022-08-03T08:38:53.754Z,44.75
2022-08-03T08:40:56.875Z,45.89
2022-08-03T08:43:01.279Z,45.11
2022-08-03T08:45:06.579Z,44.45
2022-08-03T08:47:10.848Z,43.91
2022-08-03T08:49:18.624Z,44.02
2022-08-03T08:51:23.112Z,44.91
2022-08-03T08:53:30.343Z,44.03
2022-08-03T08:55:58.367Z,44.13
2022-08-03T08:58:00.098Z,44.16
2022-08-03T09:00:06.426Z,43.98
2022-08-03T09:02:09.444Z,44.54
2022-08-03T09:04:13.680Z,43.42
2022-08-03T09:06:17.622Z,43.49
2022-08-03T09:08:20.678Z,42.59
2022-08-03T09:10:23.728Z,42.89
2022-08-03T09:12:42.856Z,42.80
2022-08-03T09:15:07.277Z,42.62
2022-08-03T09:17:17.317Z,42.21
2022-08-03T09:19:20.564Z,41.38
2022-08-03T09:21:33.556Z,41.29
2022-08-03T09:24:01.919Z,41.39
2022-08-03T09:26:09.151Z,41.60
2022-08-03T09:28:13.981Z,41.10
2022-08-03T09:30:38.171Z,41.77
2022-08-03T09:32:43.070Z,41.56
2022-08-03T09:34:46.161Z,41.64
2022-08-03T09:36:50.546Z,41.93
2022-08-03T09:39:03.821Z,41.41
2022-08-03T09:41:19.277Z,41.98
2022-08-03T09:43:23.748Z,42.17
2022-08-03T09:45:27.783Z,41.47
2022-08-03T09:47:32.184Z,40.92
2022-08-03T09:49:36.729Z,39.75
2022-08-03T09:52:33.116Z,39.99
2022-08-03T09:54:05.576Z,39.13
2022-08-03T09:56:35.859Z,38.32
2022-08-03T09:58:33.886Z,38.66
2022-08-03T10:00:55.045Z,38.16
2022-08-03T10:03:05.329Z,38.33
2022-08-03T10:05:11.276Z,38.45
2022-08-03T10:07:24.206Z,36.96
2022-08-03T10:09:27.179Z,38.30
2022-08-03T10:11:31.356Z,37.94
2022-08-03T10:13:35.381Z,37.87
2022-08-03T10:16:22.545Z,38.16
2022-08-03T10:18:01.555Z,37.15
2022-08-03T10:20:06.917Z,37.39
2022-08-03T10:22:14.484Z,38.02
2022-08-03T10:24:18.993Z,38.42
2022-08-03T10:26:24.026Z,37.51
2022-08-03T10:28:28.225Z,37.62
2022-08-03T10:30:34.151Z,37.46
2022-08-03T10:32:57.901Z,37.65
2022-08-03T10:35:20.372Z,36.67
2022-08-03T10:37:28.172Z,35.97
2022-08-03T10:39:31.696Z,36.33
2022-08-03T10:41:40.738Z,35.08
2022-08-03T10:43:49.605Z,35.75
2022-08-03T10:45:53.094Z,35.72
2022-08-03T10:47:57.602Z,34.73
2022-08-03T10:50:00.975Z,35.02
2022-08-03T10:52:11.192Z,35.06
2022-08-03T10:55:03.220Z,35.44
2022-08-03T10:57:24.440Z,35.30
2022-08-03T11:00:00.806Z,35.31
2022-08-03T11:02:08.284Z,34.80
2022-08-03T11:04:18.797Z,35.64
2022-08-03T11:06:22.884Z,35.24
2022-08-03T11:08:34.770Z,35.16
2022-08-03T11:10:42.248Z,34.15
2022-08-03T11:12:45.852Z,33.78
2022-08-03T11:14:50.329Z,33.97
2022-08-03T11:17:14.512Z,34.12
2022-08-03T11:19:22.415Z,33.10
2022-08-03T11:21:58.609Z,33.17
2022-08-03T11:24:02.477Z,33.17
2022-08-03T11:26:14.412Z,33.87
2022-08-03T11:28:28.068Z,35.20
2022-08-03T11:30:31.507Z,34.20
2022-08-03T11:32:52.768Z,33.41
2022-08-03T11:35:11.904Z,33.71
2022-08-03T11:37:28.742Z,33.20
2022-08-03T11:39:40.313Z,33.17
2022-08-03T11:41:45.182Z,33.86
2022-08-03T11:43:48.899Z,32.66
2022-08-03T11:45:59.104Z,32.41
2022-08-03T11:48:12.193Z,33.01
2022-08-03T11:50:17.191Z,32.26
2022-08-03T11:52:27.210Z,31.89
2022-08-03T11:54:31.733Z,31.75
2022-08-03T11:56:47.088Z,31.77
2022-08-03T11:59:00.775Z,32.20
2022-08-03T12:01:21.219Z,32.22
2022-08-03T12:03:26.110Z,31.78
2022-08-03T12:05:40.991Z,31.41
2022-08-03T12:08:03.256Z,31.33
2022-08-03T12:10:08.391Z,30.61
2022-08-03T12:12:17.317Z,31.84
2022-08-03T12:14:49.466Z,30.62
2022-08-03T12:16:48.558Z,31.49
2022-08-03T12:18:56.704Z,31.28
2022-08-03T12:21:08.641Z,30.53
2022-08-03T12:23:12.168Z,31.83
2022-08-03T12:25:39.423Z,31.71
2022-08-03T12:27:44.260Z,32.87
2022-08-03T12:29:57.222Z,32.36
2022-08-03T12:32:02.286Z,31.62
2022-08-03T12:34:07.147Z,32.27
2022-08-03T12:36:11.368Z,32.32
2022-08-03T12:38:14.793Z,32.24
2022-08-03T12:40:28.184Z,32.12
2022-08-03T12:42:31.541Z,31.57
2022-08-03T12:44:37.161Z,31.92
2022-08-03T12:46:47.091Z,31.66
2022-08-03T12:49:11.171Z,31.52
2022-08-03T12:51:14.274Z,31.20
2022-08-03T12:53:29.838Z,31.52
2022-08-03T12:55:57.043Z,31.02
2022-08-03T12:57:58.975Z,30.25
2022-08-03T13:00:21.721Z,30.90
2022-08-03T13:02:32.371Z,30.87
2022-08-03T13:04:37.263Z,30.90
2022-08-03T13:06:40.249Z,31.29
2022-08-03T13:08:44.418Z,31.12
2022-08-03T13:10:47.441Z,30.63
2022-08-03T13:12:51.462Z,30.90
2022-08-03T13:14:56.818Z,31.27
2022-08-03T13:17:01.495Z,30.86
2022-08-03T13:19:04.508Z,30.54
2022-08-03T13:21:10.528Z,30.73
2022-08-03T13:23:22.703Z,31.40
2022-08-03T13:25:25.993Z,31.63
2022-08-03T13:28:03.722Z,31.86
2022-08-03T13:29:53.383Z,32.13
2022-08-03T13:31:56.445Z,33.17
2022-08-03T13:34:00.811Z,32.95
2022-08-03T13:36:06.232Z,32.75
2022-08-03T13:38:09.986Z,32.61
2022-08-03T13:40:13.292Z,31.66
2022-08-03T13:42:17.871Z,31.62
2022-08-03T13:44:29.419Z,32.90
2022-08-03T13:46:32.878Z,32.54
2022-08-03T13:48:38.846Z,32.25
2022-08-03T13:50:43.379Z,32.99
2022-08-03T13:52:46.768Z,33.19
2022-08-03T13:54:49.890Z,32.30
2022-08-03T13:56:55.816Z,32.20
2022-08-03T13:59:02.003Z,32.30
2022-08-03T14:01:07.714Z,32.20
2022-08-03T14:03:14.710Z,32.20
2022-08-03T14:05:18.146Z,31.80
2022-08-03T14:07:22.577Z,31.05
2022-08-03T14:09:25.643Z,31.07
2022-08-03T14:12:05.244Z,30.91
2022-08-03T14:13:51.804Z,30.88
2022-08-03T14:15:55.628Z,30.73
2022-08-03T14:17:59.489Z,31.00
2022-08-03T14:20:03.516Z,30.78
2022-08-03T14:22:26.763Z,30.91
2022-08-03T14:24:29.753Z,31.02
2022-08-03T14:26:32.732Z,31.03
2022-08-03T14:28:36.004Z,31.19
2022-08-03T14:30:39.062Z,29.89
2022-08-03T14:32:42.131Z,30.94
2022-08-03T14:34:45.124Z,30.80
2022-08-03T14:36:48.208Z,31.18
2022-08-03T14:38:52.708Z,31.29
2022-08-03T14:40:55.829Z,31.32
2022-08-03T14:42:58.875Z,31.68
2022-08-03T14:45:06.023Z,31.44
2022-08-03T14:47:12.568Z,32.47
2022-08-03T14:50:37.583Z,31.70
2022-08-03T14:51:38.616Z,32.13
2022-08-03T14:53:56.145Z,31.80
2022-08-03T14:55:59.581Z,32.33
2022-08-03T14:58:05.675Z,32.26
2022-08-03T15:00:22.950Z,32.35
2022-08-03T15:02:26.300Z,32.36
2022-08-03T15:04:29.290Z,33.11
2022-08-03T15:06:32.552Z,33.46
2022-08-03T15:08:35.492Z,33.80
2022-08-03T15:10:43.730Z,33.54
2022-08-03T15:12:47.938Z,33.15
2022-08-03T15:14:50.950Z,33.84
2022-08-03T15:16:54.290Z,33.22
2022-08-03T15:18:57.309Z,34.19
2022-08-03T15:21:00.246Z,33.64
2022-08-03T15:23:03.792Z,34.63
2022-08-03T15:26:31.914Z,34.75
2022-08-03T15:27:32.318Z,34.13
2022-08-03T15:30:09.021Z,34.00
2022-08-03T15:31:58.481Z,34.49
2022-08-03T15:34:01.620Z,34.62
2022-08-03T15:36:07.852Z,34.48
2022-08-03T15:38:11.248Z,35.03
2022-08-03T15:40:14.405Z,33.98
2022-08-03T15:42:17.358Z,34.49
2022-08-03T15:44:21.812Z,34.70
2022-08-03T15:46:29.591Z,34.89
2022-08-03T15:48:32.999Z,34.34
2022-08-03T15:50:36.126Z,34.11
2022-08-03T15:52:39.293Z,34.93
2022-08-03T15:54:42.696Z,34.81
2022-08-03T15:56:46.004Z,34.53
2022-08-03T15:59:03.834Z,34.48
2022-08-03T16:01:16.462Z,33.76
2022-08-03T16:03:22.689Z,34.24
2022-08-03T16:05:25.717Z,33.16
2022-08-03T16:08:03.658Z,34.05
2022-08-03T16:10:08.397Z,34.29
2022-08-03T16:12:11.857Z,34.16
2022-08-03T16:14:34.460Z,33.53
2022-08-03T16:16:43.748Z,33.30
2022-08-03T16:18:46.643Z,33.30
2022-08-03T16:20:49.666Z,32.42
2022-08-03T16:22:52.770Z,32.85
2022-08-03T16:24:56.070Z,32.49
2022-08-03T16:27:00.734Z,32.92
2022-08-03T16:29:03.987Z,33.17
2022-08-03T16:31:13.827Z,32.83
2022-08-03T16:33:18.395Z,32.90
2022-08-03T16:35:21.425Z,33.20
2022-08-03T16:37:39.800Z,33.27
2022-08-03T16:39:43.233Z,33.93
2022-08-03T16:41:54.328Z,34.16
2022-08-03T16:44:09.781Z,34.63
2022-08-03T16:46:12.988Z,34.72
2022-08-03T16:48:16.461Z,34.29
2022-08-03T16:50:20.994Z,34.43
2022-08-03T16:52:24.580Z,34.28
2022-08-03T16:54:28.119Z,34.04
2022-08-03T16:56:32.541Z,34.05
2022-08-03T16:58:42.209Z,34.42
2022-08-03T17:00:46.461Z,34.52
2022-08-03T17:02:53.117Z,34.69
2022-08-03T17:04:58.110Z,34.87
2022-08-03T17:07:04.637Z,35.01
2022-08-03T17:09:10.179Z,35.27
2022-08-03T17:11:13.531Z,35.28
2022-08-03T17:13:22.401Z,35.49
2022-08-03T17:15:38.293Z,36.05
2022-08-03T17:17:55.987Z,36.42
2022-08-03T17:20:00.451Z,36.44
2022-08-03T17:22:11.096Z,36.46
2022-08-03T17:24:19.890Z,36.29
2022-08-03T17:26:30.417Z,36.95
2022-08-03T17:28:50.237Z,37.02
2022-08-03T17:31:23.394Z,36.09
2022-08-03T17:33:35.775Z,36.92
2022-08-03T17:35:39.008Z,37.14
2022-08-03T17:37:57.744Z,36.70
2022-08-03T17:40:07.034Z,37.14
2022-08-03T17:42:29.371Z,37.42
2022-08-03T17:44:35.271Z,37.23
2022-08-03T17:46:44.505Z,38.32
2022-08-03T17:48:49.958Z,37.59
2022-08-03T17:50:55.898Z,38.42
2022-08-03T17:53:06.714Z,37.49
2022-08-03T17:55:56.823Z,37.55
2022-08-03T17:58:02.559Z,38.65
2022-08-03T18:00:28.757Z,38.91
2022-08-03T18:02:55.044Z,39.08
2022-08-03T18:05:16.432Z,39.41
2022-08-03T18:07:24.340Z,39.78
2022-08-03T18:10:04.497Z,39.00
2022-08-03T18:12:11.954Z,38.75
2022-08-03T18:14:17.727Z,38.50
2022-08-03T18:16:23.693Z,38.98
2022-08-03T18:18:32.719Z,39.29
2022-08-03T18:20:41.785Z,39.18
2022-08-03T18:22:45.488Z,40.07
2022-08-03T18:24:52.326Z,40.23
2022-08-03T18:26:56.038Z,40.17
2022-08-03T18:29:00.287Z,40.50
2022-08-03T18:31:07.597Z,40.58
2022-08-03T18:34:17.260Z,40.90
2022-08-03T18:35:52.960Z,41.29
2022-08-03T18:37:57.495Z,41.37
2022-08-03T18:40:07.477Z,41.53
2022-08-03T18:42:19.526Z,41.94
2022-08-03T18:44:46.459Z,42.10
2022-08-03T18:47:06.871Z,42.47
2022-08-03T18:49:14.138Z,42.47
2022-08-03T18:51:28.756Z,42.54
2022-08-03T18:54:03.897Z,42.52
2022-08-03T18:56:11.015Z,42.80
2022-08-03T18:58:19.402Z,42.79
2022-08-03T19:00:24.355Z,43.01
2022-08-03T19:02:40.595Z,43.73
2022-08-03T19:04:55.151Z,43.79
2022-08-03T19:07:04.191Z,44.49
2022-08-03T19:09:16.865Z,44.90
2022-08-03T19:11:28.121Z,44.50
2022-08-03T19:13:36.835Z,45.21
2022-08-03T19:15:51.255Z,45.02
2022-08-03T19:17:57.335Z,46.26
2022-08-03T19:20:03.231Z,46.50
2022-08-03T19:22:09.527Z,46.80
2022-08-03T19:24:14.407Z,47.12
2022-08-03T19:26:29.885Z,47.16
2022-08-03T19:28:36.590Z,48.27
2022-08-03T19:30:46.484Z,48.99
2022-08-03T19:32:56.819Z,49.43
2022-08-03T19:35:01.558Z,49.68
2022-08-03T19:37:04.797Z,50.69
2022-08-03T19:39:10.026Z,50.94
2022-08-03T19:41:14.903Z,51.45
2022-08-03T19:43:21.266Z,51.95
2022-08-03T19:46:04.704Z,52.82
2022-08-03T19:47:53.785Z,53.45
2022-08-03T19:50:06.201Z,53.95
2022-08-03T19:52:20.866Z,55.49
2022-08-03T19:54:32.115Z,56.90
2022-08-03T19:56:35.579Z,57.92
2022-08-03T19:58:39.620Z,57.97
2022-08-03T20:00:48.736Z,59.18
2022-08-03T20:02:52.187Z,59.31
2022-08-03T20:04:55.917Z,59.02
2022-08-03T20:06:59.602Z,59.63
2022-08-03T20:09:02.685Z,59.21
2022-08-03T20:11:10.485Z,60.41
2022-08-03T20:13:14.524Z,61.39
2022-08-03T20:15:31.736Z,62.63
2022-08-03T20:17:54.701Z,63.60
2022-08-03T20:20:00.023Z,64.85
2022-08-03T20:22:03.121Z,65.93
2022-08-03T20:24:23.687Z,66.88
2022-08-03T20:26:30.357Z,67.62
2022-08-03T20:28:50.136Z,69.41
2022-08-03T20:31:01.856Z,70.84
2022-08-03T20:33:10.823Z,71.02
2022-08-03T20:35:14.333Z,72.36
2022-08-03T20:37:18.375Z,73.89
2022-08-03T20:39:22.750Z,74.97
2022-08-03T20:41:25.846Z,75.65
2022-08-03T20:43:28.865Z,76.65
2022-08-03T20:46:01.009Z,76.61
2022-08-03T20:47:56.167Z,77.85
2022-08-03T20:50:01.819Z,77.92
2022-08-03T20:52:05.465Z,77.37
2022-08-03T20:54:31.077Z,80.09
2022-08-03T20:56:35.986Z,84.16
2022-08-03T20:58:41.575Z,81.97
2022-08-03T21:00:45.084Z,82.23
2022-08-03T21:02:48.046Z,84.25
2022-08-03T21:04:51.094Z,87.10
2022-08-03T21:07:00.713Z,89.01
2022-08-03T21:09:06.841Z,88.44
2022-08-03T21:11:16.825Z,88.86
2022-08-03T21:13:24.872Z,89.73
2022-08-03T21:16:03.188Z,89.31
2022-08-03T21:17:56.265Z,89.24
2022-08-03T21:20:03.369Z,89.78
2022-08-03T21:22:09.812Z,90.09
2022-08-03T21:24:14.701Z,89.02
2022-08-03T21:26:18.884Z,91.40
2022-08-03T21:28:27.570Z,92.46
2022-08-03T21:30:31.726Z,92.34
2022-08-03T21:32:36.238Z,91.92
2022-08-03T21:34:39.381Z,93.18
2022-08-03T21:36:42.680Z,93.74
2022-08-03T21:38:47.577Z,94.21
2022-08-03T21:41:00.668Z,94.19
2022-08-03T21:43:03.781Z,94.58
2022-08-03T21:45:08.705Z,94.93
2022-08-03T21:47:13.262Z,94.75
2022-08-03T21:50:07.203Z,94.35
2022-08-03T21:51:40.503Z,95.29
2022-08-03T21:54:02.659Z,94.58
2022-08-03T21:56:12.187Z,96.40
2022-08-03T21:58:17.658Z,96.60
2022-08-03T22:00:24.055Z,97.38
2022-08-03T22:02:31.402Z,97.47
2022-08-03T22:04:53.885Z,96.81
2022-08-03T22:06:59.084Z,97.36
2022-08-03T22:09:04.261Z,98.09
2022-08-03T22:11:10.843Z,98.64
2022-08-03T22:13:14.900Z,99.26
2022-08-03T22:15:18.129Z,100.00
2022-08-03T22:17:53.461Z,100.00
2022-08-03T22:19:44.833Z,100.00
2022-08-03T22:21:49.615Z,100.00
2022-08-03T22:23:53.992Z,100.00
2022-08-03T22:26:00.498Z,100.00
2022-08-03T22:28:06.098Z,100.00
2022-08-03T22:30:12.601Z,100.00
2022-08-03T22:32:15.887Z,100.00
2022-08-03T22:34:18.935Z,100.00
2022-08-03T22:36:29.983Z,100.00
2022-08-03T22:38:34.009Z,100.00
2022-08-03T22:40:38.964Z,100.00
2022-08-03T22:42:45.992Z,100.00
2022-08-03T22:44:50.775Z,100.00
2022-08-03T22:46:53.756Z,100.00
2022-08-03T22:48:56.856Z,100.00
2022-08-03T22:51:00.876Z,100.00
2022-08-03T22:53:04.328Z,100.00
2022-08-03T22:55:10.072Z,100.00
2022-08-03T22:57:13.890Z,100.00
2022-08-03T22:59:40.935Z,100.00
2022-08-03T23:01:43.818Z,100.00
2022-08-03T23:04:01.092Z,100.00
2022-08-03T23:06:07.861Z,100.00
2022-08-03T23:08:11.180Z,100.00
2022-08-03T23:10:15.643Z,100.00
2022-08-03T23:12:19.734Z,100.00
2022-08-03T23:14:24.503Z,100.00
2022-08-03T23:16:29.605Z,100.00
2022-08-03T23:18:37.339Z,100.00
2022-08-03T23:20:40.843Z,100.00
2022-08-03T23:22:48.817Z,100.00
2022-08-03T23:24:54.800Z,100.00
2022-08-03T23:26:58.771Z,100.00
2022-08-03T23:29:02.674Z,100.00
2022-08-03T23:31:10.141Z,100.00
2022-08-03T23:33:15.250Z,100.00
2022-08-03T23:36:08.991Z,100.00
2022-08-03T23:38:12.185Z,100.00
2022-08-03T23:40:23.776Z,100.00
2022-08-03T23:42:26.910Z,100.00
2022-08-03T23:44:31.589Z,100.00
2022-08-03T23:46:37.260Z,100.00
2022-08-03T23:48:42.537Z,100.00
2022-08-03T23:50:47.192Z,100.00
2022-08-03T23:53:09.252Z,100.00
2022-08-03T23:55:18.333Z,100.00
2022-08-03T23:57:29.221Z,100.00
2022-08-03T23:59:37.960Z,100.00
